createdAt,value
2023-05-19T00:00:57.780Z,78.6337
2023-05-19T00:02:00.548Z,79.0800
2023-05-19T00:03:03.431Z,78.5905
2023-05-19T00:04:06.253Z,78.9274
2023-05-19T00:05:08.311Z,78.6890
2023-05-19T00:06:10.403Z,78.0575
2023-05-19T00:07:13.032Z,77.6306
2023-05-19T00:08:15.976Z,77.3053
2023-05-19T00:20:40.034Z,78.2063
2023-05-19T00:21:42.182Z,78.3673
2023-05-19T00:22:44.266Z,78.0183
2023-05-19T00:24:48.281Z,77.9028
2023-05-19T00:25:50.353Z,77.2335
2023-05-19T00:26:52.473Z,77.3470
2023-05-19T00:27:54.537Z,79.1975
2023-05-19T00:28:56.621Z,79.5275
2023-05-19T00:29:59.513Z,80.1261
2023-05-19T00:31:02.804Z,78.7926
2023-05-19T00:34:06.631Z,77.4007
2023-05-19T00:41:19.520Z,79.8213
2023-05-19T00:42:22.229Z,79.9053
2023-05-19T00:43:24.860Z,79.5774
2023-05-19T00:44:28.157Z,79.1288
2023-05-19T00:47:42.720Z,81.2224
2023-05-19T00:55:51.497Z,79.8172
2023-05-19T00:56:53.568Z,78.9938
2023-05-19T00:57:55.649Z,79.5980
2023-05-19T00:58:58.434Z,78.9729
2023-05-19T01:00:00.603Z,78.5975
2023-05-19T01:01:02.722Z,78.0690
2023-05-19T01:02:04.785Z,78.2858
2023-05-19T01:04:08.907Z,79.1798
2023-05-19T01:05:11.033Z,79.7504
2023-05-19T01:06:13.136Z,80.4298
2023-05-19T01:07:15.211Z,81.2150
2023-05-19T01:08:17.304Z,80.6059
2023-05-19T01:09:19.390Z,80.4403
2023-05-19T01:10:22.069Z,80.2902
2023-05-19T01:11:24.913Z,79.7450
2023-05-19T01:12:26.953Z,81.2140
2023-05-19T01:13:29.642Z,81.0160
2023-05-19T01:14:31.699Z,82.3976
2023-05-19T01:15:34.488Z,81.3456
2023-05-19T01:16:36.617Z,81.0418
2023-05-19T01:17:39.403Z,82.1291
2023-05-19T01:18:42.107Z,81.4472
2023-05-19T01:19:44.277Z,81.7588
2023-05-19T01:20:46.345Z,81.4900
2023-05-19T01:21:48.416Z,81.4953
2023-05-19T01:22:50.485Z,81.3948
2023-05-19T01:23:53.634Z,81.0016
2023-05-19T01:24:52.840Z,82.2132
2023-05-19T01:25:56.252Z,81.8253
2023-05-19T01:28:00.124Z,84.7551
2023-05-19T01:29:02.897Z,84.8564
2023-05-19T01:30:04.954Z,85.5666
2023-05-19T01:31:07.032Z,84.5689
2023-05-19T01:33:11.720Z,81.6645
2023-05-19T01:34:14.610Z,81.0529
2023-05-19T01:35:16.734Z,82.0110
2023-05-19T01:36:18.817Z,83.8852
2023-05-19T01:37:21.137Z,83.2044
2023-05-19T01:38:23.186Z,82.4719
2023-05-19T01:39:25.283Z,83.3372
2023-05-19T01:41:29.969Z,82.7075
2023-05-19T01:42:32.107Z,82.5488
2023-05-19T01:43:34.216Z,81.5905
2023-05-19T01:44:36.305Z,82.0202
2023-05-19T01:45:38.912Z,82.0711
2023-05-19T01:46:41.023Z,81.7924
2023-05-19T01:47:43.136Z,82.7489
2023-05-19T01:48:45.185Z,83.7550
2023-05-19T01:49:48.408Z,84.6838
2023-05-19T01:50:49.012Z,85.3132
2023-05-19T01:52:50.715Z,81.3435
2023-05-19T01:53:53.675Z,81.1212
2023-05-19T01:54:56.446Z,82.3418
2023-05-19T01:55:58.548Z,82.8309
2023-05-19T01:57:01.234Z,83.3580
2023-05-19T01:58:03.390Z,82.0866
2023-05-19T01:59:05.501Z,81.7779
2023-05-19T02:00:07.549Z,83.1043
2023-05-19T02:01:10.433Z,82.1520
2023-05-19T02:02:13.156Z,82.0720
2023-05-19T02:03:15.952Z,81.4557
2023-05-19T02:04:18.089Z,81.2337
2023-05-19T02:05:20.116Z,81.1114
2023-05-19T02:06:22.917Z,81.9634
2023-05-19T02:07:25.636Z,81.5609
2023-05-19T02:08:27.730Z,82.6068
2023-05-19T02:09:29.795Z,82.0845
2023-05-19T02:10:33.177Z,81.2870
2023-05-19T02:11:33.539Z,82.5175
2023-05-19T02:12:34.565Z,83.0124
2023-05-19T02:13:36.650Z,83.1459
2023-05-19T02:14:39.422Z,83.4992
2023-05-19T02:15:48.614Z,83.0264
2023-05-19T02:22:52.630Z,81.7942
2023-05-19T02:25:55.627Z,82.8478
2023-05-19T02:26:57.694Z,82.6324
2023-05-19T02:27:59.799Z,82.5695
2023-05-19T02:29:01.807Z,83.7257
2023-05-19T02:30:03.876Z,84.9438
2023-05-19T02:31:07.212Z,83.0854
2023-05-19T02:42:24.863Z,81.5566
2023-05-19T02:44:29.587Z,81.6682
2023-05-19T02:45:32.482Z,82.0637
2023-05-19T02:46:34.585Z,82.4332
2023-05-19T02:47:37.314Z,82.1850
2023-05-19T02:48:40.135Z,82.3516
2023-05-19T02:49:43.892Z,81.9620
2023-05-19T02:50:43.732Z,82.2108
2023-05-19T02:51:45.980Z,82.7590
2023-05-19T02:52:48.701Z,82.6647
2023-05-19T02:53:51.499Z,83.1009
2023-05-19T02:54:54.274Z,82.7932
2023-05-19T02:55:57.029Z,81.7442
2023-05-19T02:56:59.068Z,82.3698
2023-05-19T02:58:01.181Z,82.8003
2023-05-19T02:59:03.241Z,83.1360
2023-05-19T03:00:06.044Z,82.8736
2023-05-19T03:01:06.245Z,83.0456
2023-05-19T03:02:08.493Z,82.7495
2023-05-19T03:04:13.294Z,83.0080
2023-05-19T03:05:16.038Z,82.5544
2023-05-19T03:06:18.942Z,82.3592
2023-05-19T03:09:26.019Z,86.2579
2023-05-19T03:10:28.097Z,85.8442
2023-05-19T03:11:31.159Z,83.6147
2023-05-19T03:14:34.674Z,83.2630
2023-05-19T03:16:39.676Z,82.7405
2023-05-19T03:19:43.378Z,83.1473
2023-05-19T03:20:45.471Z,83.9777
2023-05-19T03:21:48.435Z,84.2169
2023-05-19T03:22:48.458Z,84.0299
2023-05-19T03:25:52.912Z,83.2596
2023-05-19T03:30:02.426Z,83.6914
2023-05-19T03:31:02.970Z,83.8438
2023-05-19T03:32:05.066Z,83.5611
2023-05-19T03:39:18.904Z,84.0237
2023-05-19T03:40:21.573Z,84.1510
2023-05-19T03:41:23.645Z,84.3544
2023-05-19T03:42:26.335Z,82.6158
2023-05-19T03:43:29.037Z,83.9554
2023-05-19T03:44:31.891Z,82.9267
2023-05-19T03:45:34.687Z,82.9364
2023-05-19T03:46:37.393Z,83.5737
2023-05-19T03:48:42.159Z,83.4271
2023-05-19T03:49:44.919Z,84.1475
2023-05-19T03:50:47.658Z,84.7255
2023-05-19T03:51:49.746Z,85.4542
2023-05-19T03:52:57.571Z,84.9845
2023-05-19T03:53:54.433Z,85.7461
2023-05-19T03:54:57.064Z,85.9588
2023-05-19T03:55:59.192Z,86.0777
2023-05-19T03:58:03.324Z,86.5016
2023-05-19T03:59:05.465Z,86.6919
2023-05-19T04:01:10.756Z,85.3747
2023-05-19T04:02:12.904Z,84.8803
2023-05-19T04:03:15.185Z,84.7408
2023-05-19T04:05:19.616Z,85.6487
2023-05-19T04:06:21.740Z,85.2482
2023-05-19T04:07:23.857Z,84.7991
2023-05-19T04:08:25.972Z,85.2230
2023-05-19T04:09:28.090Z,84.9205
2023-05-19T04:10:31.115Z,84.9422
2023-05-19T04:18:44.900Z,86.7085
2023-05-19T04:19:47.708Z,86.5405
2023-05-19T04:20:49.877Z,85.9370
2023-05-19T04:21:51.995Z,84.8891
2023-05-19T04:22:54.610Z,86.1080
2023-05-19T04:23:56.698Z,85.9674
2023-05-19T04:24:59.532Z,86.4102
2023-05-19T04:26:02.505Z,86.0720
2023-05-19T04:34:17.067Z,85.9852
2023-05-19T04:35:19.213Z,85.4771
2023-05-19T04:36:21.379Z,85.5605
2023-05-19T04:37:24.059Z,85.8676
2023-05-19T04:38:26.819Z,85.0098
2023-05-19T04:39:28.991Z,84.6897
2023-05-19T04:40:31.384Z,85.0702
2023-05-19T04:41:33.744Z,84.6656
2023-05-19T04:42:38.960Z,84.5056
2023-05-19T04:43:38.816Z,84.6594
2023-05-19T04:44:41.613Z,84.2467
2023-05-19T04:45:44.347Z,84.3096
2023-05-19T04:46:47.387Z,84.5660
2023-05-19T04:48:49.822Z,84.7884
2023-05-19T04:52:56.492Z,83.6201
2023-05-19T04:53:59.261Z,84.1800
2023-05-19T04:55:02.062Z,84.2359
2023-05-19T04:56:04.179Z,83.1404
2023-05-19T04:58:08.920Z,83.0371
2023-05-19T05:02:15.333Z,82.7811
2023-05-19T05:03:18.274Z,82.4439
2023-05-19T05:07:26.398Z,82.0825
2023-05-19T05:14:39.627Z,81.6887
2023-05-19T05:15:39.700Z,80.9221
2023-05-19T05:16:41.868Z,80.5963
2023-05-19T05:17:44.594Z,80.1963
2023-05-19T05:18:46.796Z,79.9653
2023-05-19T05:19:48.936Z,80.6294
2023-05-19T05:20:51.096Z,80.3403
2023-05-19T05:21:53.190Z,79.7992
2023-05-19T05:22:55.276Z,79.8861
2023-05-19T05:23:57.653Z,80.5532
2023-05-19T05:24:59.787Z,80.2571
2023-05-19T05:26:01.878Z,80.6178
2023-05-19T05:27:04.656Z,81.3849
2023-05-19T05:28:07.771Z,81.0974
2023-05-19T05:43:39.354Z,82.1239
2023-05-19T05:44:42.135Z,82.2871
2023-05-19T05:45:44.956Z,82.6466
2023-05-19T05:46:47.068Z,81.9838
2023-05-19T05:47:49.196Z,82.4688
2023-05-19T05:48:51.688Z,82.1360
2023-05-19T05:49:54.422Z,82.4143
2023-05-19T05:50:57.144Z,82.1477
2023-05-19T05:53:02.678Z,82.2953
2023-05-19T05:54:04.771Z,81.9703
2023-05-19T05:55:06.902Z,82.3828
2023-05-19T05:56:09.663Z,81.7987
2023-05-19T05:57:11.817Z,82.1393
2023-05-19T05:58:14.652Z,81.7715
2023-05-19T05:59:16.754Z,82.0531
2023-05-19T06:00:18.825Z,82.4198
2023-05-19T06:01:21.572Z,82.0782
2023-05-19T06:02:23.850Z,82.1855
2023-05-19T06:03:26.097Z,82.2277
2023-05-19T06:05:30.230Z,82.1597
2023-05-19T06:06:32.978Z,82.1270
2023-05-19T06:07:35.110Z,81.7255
2023-05-19T06:08:37.238Z,81.3062
2023-05-19T06:10:00.984Z,81.5245
2023-05-19T06:17:55.487Z,82.2612
2023-05-19T06:18:58.393Z,82.5541
2023-05-19T06:26:11.941Z,81.8419
2023-05-19T06:27:14.683Z,82.7120
2023-05-19T06:28:17.656Z,82.2054
2023-05-19T06:30:19.944Z,83.0357
2023-05-19T06:31:22.921Z,82.8083
2023-05-19T06:33:25.507Z,81.8870
2023-05-19T06:34:25.903Z,82.3918
2023-05-19T06:35:28.025Z,82.9536
2023-05-19T06:37:32.653Z,82.3040
2023-05-19T06:38:35.440Z,82.2536
2023-05-19T06:39:38.130Z,82.3025
2023-05-19T06:40:40.242Z,82.3291
2023-05-19T06:41:43.103Z,82.2280
2023-05-19T06:42:45.209Z,82.5565
2023-05-19T06:43:47.322Z,82.6782
2023-05-19T06:44:50.953Z,82.6780
2023-05-19T06:45:51.316Z,82.4025
2023-05-19T06:48:55.437Z,81.9628
2023-05-19T06:49:58.562Z,82.4258
2023-05-19T06:51:59.781Z,82.3080
2023-05-19T06:53:01.977Z,82.0597
2023-05-19T06:54:04.172Z,82.3251
2023-05-19T06:55:06.514Z,82.5415
2023-05-19T06:56:14.475Z,83.1619
2023-05-19T06:57:33.209Z,82.8696
2023-05-19T07:04:23.645Z,81.5634
2023-05-19T07:05:26.503Z,81.9685
2023-05-19T07:06:28.608Z,81.5329
2023-05-19T07:07:30.689Z,81.5632
2023-05-19T07:08:32.983Z,81.6132
2023-05-19T07:09:36.217Z,81.3529
2023-05-19T07:10:39.186Z,81.4812
2023-05-19T07:11:39.643Z,80.5534
2023-05-19T07:12:41.739Z,80.5194
2023-05-19T07:13:44.167Z,80.6940
2023-05-19T07:14:46.909Z,80.7026
2023-05-19T07:15:49.613Z,80.9293
2023-05-19T07:16:51.910Z,80.5580
2023-05-19T07:17:54.383Z,81.0458
2023-05-19T07:18:55.133Z,80.2801
2023-05-19T07:19:58.131Z,80.7916
2023-05-19T07:27:11.776Z,80.5190
2023-05-19T07:28:12.200Z,79.9889
2023-05-19T07:31:17.629Z,78.6453
2023-05-19T07:32:19.915Z,79.5672
2023-05-19T07:33:21.971Z,79.2700
2023-05-19T07:34:24.330Z,78.9349
2023-05-19T07:35:26.433Z,79.7696
2023-05-19T07:36:29.144Z,79.6441
2023-05-19T07:37:31.905Z,80.0965
2023-05-19T07:38:34.718Z,80.1792
2023-05-19T07:41:41.422Z,79.2675
2023-05-19T07:42:44.557Z,78.7260
2023-05-19T07:44:46.465Z,78.8491
2023-05-19T07:45:48.584Z,78.0035
2023-05-19T07:46:51.026Z,78.5143
2023-05-19T07:47:53.169Z,77.5507
2023-05-19T07:48:56.492Z,77.3109
2023-05-19T07:49:59.212Z,77.0349
2023-05-19T07:51:01.897Z,76.3692
2023-05-19T07:52:04.940Z,76.4912
2023-05-19T07:54:06.742Z,76.7761
2023-05-19T07:55:09.474Z,76.2614
2023-05-19T07:56:11.590Z,76.3166
2023-05-19T07:57:14.298Z,76.6177
2023-05-19T07:58:16.421Z,76.2646
2023-05-19T07:59:19.139Z,76.9463
2023-05-19T08:00:21.240Z,76.1581
2023-05-19T08:01:24.080Z,77.2140
2023-05-19T08:03:28.185Z,76.7226
2023-05-19T08:06:34.286Z,77.5933
2023-05-19T08:07:36.374Z,77.7922
2023-05-19T08:08:39.152Z,77.6819
2023-05-19T08:09:41.831Z,78.8702
2023-05-19T08:10:43.914Z,78.7049
2023-05-19T08:11:45.955Z,78.6741
2023-05-19T08:14:53.055Z,78.7299
2023-05-19T08:15:55.881Z,79.1367
2023-05-19T08:16:58.562Z,77.9623
2023-05-19T08:18:01.359Z,77.6669
2023-05-19T08:19:03.448Z,78.2371
2023-05-19T08:20:06.105Z,78.1516
2023-05-19T08:21:08.752Z,77.6061
2023-05-19T08:22:10.800Z,77.5914
2023-05-19T08:23:12.871Z,77.1593
2023-05-19T08:24:15.558Z,77.4464
2023-05-19T08:25:18.212Z,77.0608
2023-05-19T08:46:04.072Z,78.2929
2023-05-19T08:47:06.277Z,78.2856
2023-05-19T08:48:08.504Z,76.9548
2023-05-19T08:49:10.562Z,77.3954
2023-05-19T08:50:12.707Z,76.1047
2023-05-19T08:51:14.828Z,75.2411
2023-05-19T08:52:16.933Z,75.4299
2023-05-19T08:53:32.539Z,75.4441
2023-05-19T08:59:30.810Z,74.2920
2023-05-19T09:00:33.179Z,72.9412
2023-05-19T09:21:12.728Z,75.8071
2023-05-19T09:22:14.902Z,75.2798
2023-05-19T09:23:17.045Z,76.3805
2023-05-19T09:24:19.070Z,76.8803
2023-05-19T09:25:21.205Z,77.1433
2023-05-19T09:26:23.328Z,77.5731
2023-05-19T09:27:25.455Z,77.3621
2023-05-19T09:28:27.630Z,77.2472
2023-05-19T09:29:29.711Z,76.5842
2023-05-19T09:30:31.804Z,77.3045
2023-05-19T09:31:33.926Z,77.6415
2023-05-19T09:32:36.060Z,77.4405
2023-05-19T09:33:38.168Z,76.3955
2023-05-19T09:34:40.246Z,77.0033
2023-05-19T09:35:42.358Z,76.6610
2023-05-19T09:36:44.588Z,77.3886
2023-05-19T09:37:46.689Z,76.6986
2023-05-19T09:38:48.936Z,75.7839
2023-05-19T09:39:51.082Z,74.9071
2023-05-19T09:40:53.151Z,75.0150
2023-05-19T09:41:55.249Z,74.5421
2023-05-19T09:42:57.404Z,75.0955
2023-05-19T09:43:59.610Z,74.1485
2023-05-19T09:45:01.679Z,73.6478
2023-05-19T09:46:03.933Z,74.1780
2023-05-19T09:47:06.084Z,74.0277
2023-05-19T09:48:08.263Z,74.3024
2023-05-19T09:49:10.328Z,74.1984
2023-05-19T09:50:12.444Z,74.2185
2023-05-19T09:51:14.495Z,73.2388
2023-05-19T09:52:16.537Z,72.2419
2023-05-19T09:53:18.636Z,72.1467
2023-05-19T09:54:20.712Z,72.8393
2023-05-19T09:55:22.772Z,73.0984
2023-05-19T09:56:24.857Z,73.0237
2023-05-19T09:57:26.905Z,73.5159
2023-05-19T09:58:28.967Z,73.4848
2023-05-19T09:59:33.351Z,72.0896
2023-05-19T10:00:33.349Z,71.6335
2023-05-19T10:01:35.659Z,71.4765
2023-05-19T10:02:37.781Z,72.4161
2023-05-19T10:03:39.900Z,73.2353
2023-05-19T10:04:42.008Z,73.6108
2023-05-19T10:05:44.064Z,72.5495
2023-05-19T10:06:46.129Z,72.2536
2023-05-19T10:07:48.256Z,70.5642
2023-05-19T10:08:50.399Z,72.2632
2023-05-19T10:09:52.478Z,70.0813
2023-05-19T10:10:54.602Z,69.1551
2023-05-19T10:11:56.709Z,70.4584
2023-05-19T10:12:58.896Z,70.8623
2023-05-19T10:14:00.937Z,71.4952
2023-05-19T10:15:03.029Z,71.1628
2023-05-19T10:16:05.156Z,70.9799
2023-05-19T10:17:07.359Z,70.4792
2023-05-19T10:18:09.716Z,71.9697
2023-05-19T10:19:11.859Z,71.2171
2023-05-19T10:20:13.938Z,72.1910
2023-05-19T10:21:16.028Z,72.0134
2023-05-19T10:22:18.120Z,72.7080
2023-05-19T10:23:20.289Z,72.0652
2023-05-19T10:24:23.162Z,72.5071
2023-05-19T10:25:25.491Z,72.8438
2023-05-19T10:26:27.601Z,73.0481
2023-05-19T10:27:29.683Z,72.8018
2023-05-19T10:28:31.784Z,72.9733
2023-05-19T10:29:33.912Z,72.0965
2023-05-19T10:30:35.967Z,69.6958
2023-05-19T10:31:38.089Z,71.4592
2023-05-19T10:32:40.313Z,71.7586
2023-05-19T10:33:42.405Z,72.0058
2023-05-19T10:34:44.561Z,71.0642
2023-05-19T10:35:47.255Z,71.8056
2023-05-19T10:36:46.792Z,71.4871
2023-05-19T10:37:48.907Z,70.4834
2023-05-19T10:38:50.928Z,71.8698
2023-05-19T10:39:53.029Z,73.2553
2023-05-19T10:40:55.113Z,73.2328
2023-05-19T10:41:57.203Z,73.1352
2023-05-19T10:42:59.257Z,71.7875
2023-05-19T10:44:01.625Z,72.0976
2023-05-19T10:45:03.744Z,72.1875
2023-05-19T10:46:05.829Z,71.4043
2023-05-19T10:47:07.960Z,71.9214
2023-05-19T10:48:10.140Z,70.1717
2023-05-19T10:49:12.214Z,70.1070
2023-05-19T10:50:14.471Z,71.2519
2023-05-19T10:51:16.759Z,72.3179
2023-05-19T10:52:18.891Z,71.9485
2023-05-19T10:53:20.991Z,71.5817
2023-05-19T10:54:23.174Z,71.3957
2023-05-19T10:55:25.317Z,71.4079
2023-05-19T10:56:28.196Z,70.0651
2023-05-19T10:58:29.358Z,68.5533
2023-05-19T10:59:31.441Z,69.3738
2023-05-19T11:00:33.593Z,69.4464
2023-05-19T11:09:51.212Z,72.5364
2023-05-19T11:10:53.298Z,70.6802
2023-05-19T11:11:55.365Z,70.1922
2023-05-19T11:14:00.075Z,70.5533
2023-05-19T11:15:02.158Z,71.6693
2023-05-19T11:16:04.226Z,70.9994
2023-05-19T11:17:06.429Z,70.4522
2023-05-19T11:18:08.509Z,70.3150
2023-05-19T11:19:10.728Z,70.0161
2023-05-19T11:20:13.014Z,70.6012
2023-05-19T11:21:15.111Z,69.0777
2023-05-19T11:22:17.476Z,67.2605
2023-05-19T11:23:19.661Z,69.7717
2023-05-19T11:24:21.786Z,69.2858
2023-05-19T11:25:23.953Z,70.5615
2023-05-19T11:26:26.061Z,70.2427
2023-05-19T11:27:28.306Z,69.9019
2023-05-19T11:28:30.321Z,70.2735
2023-05-19T11:29:32.867Z,72.4002
2023-05-19T11:30:33.509Z,71.3400
2023-05-19T11:31:35.657Z,71.3715
2023-05-19T11:32:37.797Z,70.9078
2023-05-19T11:33:39.858Z,71.5558
2023-05-19T11:34:41.904Z,70.6283
2023-05-19T11:35:43.960Z,70.0945
2023-05-19T11:36:46.117Z,69.4898
2023-05-19T11:37:48.173Z,67.7414
2023-05-19T11:38:50.234Z,68.6556
2023-05-19T11:39:52.338Z,68.0006
2023-05-19T11:40:54.378Z,68.6604
2023-05-19T11:41:56.457Z,67.2734
2023-05-19T11:42:58.506Z,64.0677
2023-05-19T11:44:00.571Z,63.3223
2023-05-19T11:45:02.591Z,64.2602
2023-05-19T11:46:04.679Z,64.6518
2023-05-19T11:47:06.728Z,65.4058
2023-05-19T11:48:08.906Z,64.6320
2023-05-19T11:49:10.948Z,65.5594
2023-05-19T11:50:13.122Z,66.0259
2023-05-19T11:51:15.153Z,66.9516
2023-05-19T11:52:17.252Z,66.0528
2023-05-19T11:53:19.324Z,65.6474
2023-05-19T11:54:21.392Z,64.6572
2023-05-19T11:55:23.519Z,64.0872
2023-05-19T11:56:25.665Z,64.7044
2023-05-19T11:57:27.725Z,62.7871
2023-05-19T11:59:33.492Z,64.4221
2023-05-19T12:00:34.712Z,63.2090
2023-05-19T12:01:36.794Z,62.1919
2023-05-19T12:02:38.968Z,61.3849
2023-05-19T12:03:41.176Z,63.3429
2023-05-19T12:04:43.322Z,63.7039
2023-05-19T12:05:45.886Z,60.9410
2023-05-19T12:06:45.629Z,62.4629
2023-05-19T12:07:47.644Z,61.7986
2023-05-19T12:08:49.663Z,63.7220
2023-05-19T12:09:51.701Z,62.9324
2023-05-19T12:10:53.669Z,64.5715
2023-05-19T12:11:55.706Z,65.0361
2023-05-19T12:12:57.682Z,64.7198
2023-05-19T12:13:59.690Z,63.9636
2023-05-19T12:15:01.656Z,62.9479
2023-05-19T12:16:03.753Z,66.1167
2023-05-19T12:17:05.792Z,63.9208
2023-05-19T12:18:07.886Z,65.0411
2023-05-19T12:19:09.996Z,64.6816
2023-05-19T12:20:12.121Z,64.6413
2023-05-19T12:21:14.497Z,64.4277
2023-05-19T12:22:16.660Z,64.7876
2023-05-19T12:23:18.654Z,63.8954
2023-05-19T12:24:20.702Z,63.0617
2023-05-19T12:25:22.714Z,63.9197
2023-05-19T12:26:24.749Z,64.4124
2023-05-19T12:27:26.817Z,64.2916
2023-05-19T12:28:28.888Z,63.8425
2023-05-19T12:29:30.929Z,63.7591
2023-05-19T12:30:33.934Z,64.1473
2023-05-19T12:31:34.015Z,63.1515
2023-05-19T12:32:36.174Z,63.5590
2023-05-19T12:33:38.208Z,62.7806
2023-05-19T12:34:40.277Z,63.4126
2023-05-19T12:35:42.350Z,62.4217
2023-05-19T12:36:44.376Z,62.8752
2023-05-19T12:37:46.473Z,63.9964
2023-05-19T12:38:48.534Z,63.3036
2023-05-19T12:39:50.865Z,64.3031
2023-05-19T12:40:52.912Z,65.3500
2023-05-19T12:41:54.911Z,63.3269
2023-05-19T12:42:56.909Z,63.4857
2023-05-19T12:43:58.902Z,65.3665
2023-05-19T12:45:02.297Z,65.2852
2023-05-19T12:46:02.318Z,65.8269
2023-05-19T12:50:10.102Z,67.5267
2023-05-19T12:51:12.348Z,66.5217
2023-05-19T12:52:14.354Z,65.9010
2023-05-19T12:53:16.438Z,67.2224
2023-05-19T12:54:18.403Z,66.5660
2023-05-19T12:55:20.845Z,66.9080
2023-05-19T12:56:22.898Z,65.0115
2023-05-19T12:57:24.993Z,66.0088
2023-05-19T12:58:27.379Z,65.8606
2023-05-19T12:59:38.351Z,65.5100
2023-05-19T13:00:31.796Z,66.3551
2023-05-19T13:01:34.250Z,65.1904
2023-05-19T13:02:36.492Z,65.1344
2023-05-19T13:03:38.760Z,64.5086
2023-05-19T13:04:40.848Z,65.1187
2023-05-19T13:05:42.885Z,66.1162
2023-05-19T13:06:44.987Z,63.8792
2023-05-19T13:07:46.996Z,64.3917
2023-05-19T13:08:49.044Z,62.7020
2023-05-19T13:09:51.097Z,65.0356
2023-05-19T13:10:53.138Z,63.1893
2023-05-19T13:11:55.334Z,63.4637
2023-05-19T13:12:57.372Z,64.4101
2023-05-19T13:13:59.524Z,65.1341
2023-05-19T13:15:01.550Z,66.3967
2023-05-19T13:16:03.650Z,67.2005
2023-05-19T13:17:05.679Z,68.2944
2023-05-19T13:18:07.791Z,68.4037
2023-05-19T13:19:23.877Z,68.7284
2023-05-19T13:20:11.923Z,69.2475
2023-05-19T13:21:14.217Z,69.4314
2023-05-19T13:22:16.254Z,70.3243
2023-05-19T13:23:18.341Z,69.7822
2023-05-19T13:24:20.376Z,69.2967
2023-05-19T13:25:22.524Z,70.0090
2023-05-19T13:26:24.712Z,68.2951
2023-05-19T13:27:26.759Z,67.6810
2023-05-19T13:28:28.917Z,67.9094
2023-05-19T13:29:31.000Z,68.2875
2023-05-19T13:30:33.342Z,66.6936
2023-05-19T13:31:35.989Z,67.2288
2023-05-19T13:32:38.186Z,67.0995
2023-05-19T13:33:40.242Z,67.9545
2023-05-19T13:34:42.459Z,69.5713
2023-05-19T13:35:44.545Z,69.0100
2023-05-19T13:36:46.943Z,68.6140
2023-05-19T13:37:49.089Z,69.2287
2023-05-19T13:38:51.152Z,70.4512
2023-05-19T13:39:53.321Z,69.5363
2023-05-19T13:40:55.381Z,69.0620
2023-05-19T13:41:57.452Z,68.7110
2023-05-19T13:42:59.544Z,69.8089
2023-05-19T13:44:01.631Z,70.9191
2023-05-19T13:45:03.764Z,68.8002
2023-05-19T13:46:05.923Z,67.5179
2023-05-19T13:47:08.105Z,68.6727
2023-05-19T13:48:10.344Z,69.4156
2023-05-19T13:49:12.466Z,69.4366
2023-05-19T13:50:14.520Z,68.4109
2023-05-19T13:51:16.696Z,68.3006
2023-05-19T13:52:18.759Z,66.9126
2023-05-19T13:53:20.915Z,68.2539
2023-05-19T13:54:22.998Z,68.1700
2023-05-19T13:55:25.088Z,67.0528
2023-05-19T13:56:27.253Z,67.0849
2023-05-19T13:57:29.352Z,68.0382
2023-05-19T13:58:31.421Z,68.6711
2023-05-19T13:59:33.519Z,68.4520
2023-05-19T14:00:35.799Z,68.8167
2023-05-19T14:01:40.429Z,69.4911
2023-05-19T14:02:40.946Z,68.8061
2023-05-19T14:03:43.240Z,68.8590
2023-05-19T14:04:45.530Z,70.1130
2023-05-19T14:05:47.661Z,70.4853
2023-05-19T14:06:49.958Z,69.9046
2023-05-19T14:07:52.139Z,70.3171
2023-05-19T14:08:54.262Z,70.0590
2023-05-19T14:09:56.418Z,70.0476
2023-05-19T14:10:58.642Z,69.9469
2023-05-19T14:12:00.855Z,71.0812
2023-05-19T14:20:17.513Z,70.9834
2023-05-19T14:21:19.692Z,70.5776
2023-05-19T14:22:21.895Z,70.2342
2023-05-19T14:23:24.144Z,70.1943
2023-05-19T14:24:26.340Z,69.8094
2023-05-19T14:25:28.567Z,69.5160
2023-05-19T14:26:30.767Z,69.4269
2023-05-19T14:27:33.187Z,69.3819
2023-05-19T14:28:35.523Z,70.7477
2023-05-19T14:29:38.052Z,71.9786
2023-05-19T14:30:40.513Z,72.2796
2023-05-19T14:31:42.728Z,70.9939
2023-05-19T14:32:44.973Z,71.1976
2023-05-19T14:33:47.115Z,71.0989
2023-05-19T14:34:49.306Z,69.6749
2023-05-19T14:35:51.522Z,69.0696
2023-05-19T14:36:53.846Z,69.3228
2023-05-19T14:37:56.106Z,69.8842
2023-05-19T14:38:58.364Z,70.0973
2023-05-19T14:40:00.608Z,69.9390
2023-05-19T14:41:02.924Z,69.6946
2023-05-19T14:42:05.379Z,69.6344
2023-05-19T14:43:07.665Z,68.6949
2023-05-19T14:44:09.999Z,68.4178
2023-05-19T14:46:14.329Z,69.4942
2023-05-19T14:47:16.620Z,69.6585
2023-05-19T14:48:18.862Z,69.1602
2023-05-19T14:49:21.284Z,69.3929
2023-05-19T14:50:23.509Z,68.6543
2023-05-19T14:51:25.778Z,67.9232
2023-05-19T14:52:28.023Z,68.9764
2023-05-19T14:53:30.367Z,68.2402
2023-05-19T14:54:32.568Z,68.0361
2023-05-19T14:55:34.877Z,68.7840
2023-05-19T14:56:37.043Z,68.2387
2023-05-19T14:57:39.338Z,69.0208
2023-05-19T14:58:41.495Z,68.8807
2023-05-19T14:59:43.672Z,69.0720
2023-05-19T15:00:45.907Z,68.6356
2023-05-19T15:01:48.180Z,69.1450
2023-05-19T15:02:50.513Z,68.4821
2023-05-19T15:03:52.821Z,69.2295
2023-05-19T15:04:55.117Z,69.7792
2023-05-19T15:05:57.319Z,68.9261
2023-05-19T15:08:02.271Z,67.8695
2023-05-19T15:09:02.852Z,68.6412
2023-05-19T15:10:05.047Z,68.4539
2023-05-19T15:11:07.247Z,69.3626
2023-05-19T15:12:09.452Z,68.3639
2023-05-19T15:13:11.652Z,68.4023
2023-05-19T15:14:11.865Z,68.2824
2023-05-19T15:15:14.070Z,69.9973
2023-05-19T15:16:17.996Z,68.8742
2023-05-19T15:17:18.625Z,70.5824
2023-05-19T15:18:20.868Z,70.5199
2023-05-19T15:19:23.213Z,69.4723
2023-05-19T15:20:26.964Z,69.4559
2023-05-19T15:21:27.746Z,70.5009
2023-05-19T15:22:30.021Z,71.5974
2023-05-19T15:23:32.350Z,71.1684
2023-05-19T15:24:52.871Z,71.4736
2023-05-19T15:30:43.850Z,72.2291
2023-05-19T15:31:46.661Z,72.1638
2023-05-19T15:32:49.540Z,72.1436
2023-05-19T15:33:52.315Z,72.1311
2023-05-19T15:34:54.474Z,72.4259
2023-05-19T15:35:56.650Z,71.7747
2023-05-19T15:36:59.483Z,72.1348
2023-05-19T15:45:13.129Z,72.4857
2023-05-19T15:50:25.135Z,71.8105
2023-05-19T15:51:28.123Z,72.3084
2023-05-19T15:52:28.324Z,72.4810
2023-05-19T15:53:30.534Z,73.2309
2023-05-19T15:55:36.160Z,72.1930
2023-05-19T15:57:37.719Z,71.9833
2023-05-19T15:58:39.920Z,72.4097
2023-05-19T15:59:42.118Z,71.6190
2023-05-19T16:08:03.255Z,71.6623
2023-05-19T16:09:03.351Z,73.1991
2023-05-19T16:11:06.068Z,70.8730
2023-05-19T16:12:08.837Z,71.8611
2023-05-19T16:13:11.025Z,72.0766
2023-05-19T16:14:13.843Z,70.6009
2023-05-19T16:15:16.220Z,70.4413
2023-05-19T16:16:21.067Z,70.4571
2023-05-19T16:33:55.901Z,70.1620
2023-05-19T16:35:57.406Z,69.8192
2023-05-19T16:37:00.350Z,70.1374
2023-05-19T16:38:03.272Z,70.5477
2023-05-19T16:39:06.179Z,71.9964
2023-05-19T16:40:08.400Z,70.4634
2023-05-19T16:41:11.254Z,71.5967
2023-05-19T16:42:10.599Z,70.6549
2023-05-19T16:43:13.753Z,70.7677
2023-05-19T16:44:15.143Z,71.1672
2023-05-19T16:47:19.862Z,70.4388
2023-05-19T16:48:20.009Z,71.2958
2023-05-19T16:49:22.167Z,72.0049
2023-05-19T16:50:25.029Z,70.9160
2023-05-19T16:55:29.958Z,71.6573
2023-05-19T16:56:32.703Z,72.1705
2023-05-19T16:57:35.452Z,73.2683
2023-05-19T16:58:38.258Z,72.7658
2023-05-19T16:59:41.277Z,73.0716
2023-05-19T17:02:46.647Z,72.4364
2023-05-19T17:06:54.094Z,71.6900
2023-05-19T17:12:03.991Z,71.9981
2023-05-19T17:13:06.210Z,71.7711
2023-05-19T17:14:09.280Z,71.9801
2023-05-19T17:26:34.537Z,72.8304
2023-05-19T17:27:33.841Z,72.4373
2023-05-19T17:28:35.986Z,72.6862
2023-05-19T17:29:38.342Z,72.2454
2023-05-19T17:30:41.127Z,72.5439
2023-05-19T17:31:44.629Z,72.3254
2023-05-19T17:44:09.965Z,73.3442
2023-05-19T17:47:10.749Z,73.5167
2023-05-19T17:49:12.616Z,74.4770
2023-05-19T17:54:22.496Z,74.6716
2023-05-19T17:55:22.634Z,74.0529
2023-05-19T17:58:27.301Z,74.5080
2023-05-19T18:04:34.851Z,74.3574
2023-05-19T18:05:37.851Z,73.9910
2023-05-19T18:10:48.137Z,72.6693
2023-05-19T18:12:50.067Z,74.1086